Time;durP1;ratioP1;P1;durP2;ratioP2;P2;SDS_P1;SDS_P2;PMS_P1;PMS_P2;Temp;Humidity;BMP_temperature;BMP_pressure;BME280_temperature;BME280_humidity;BME280_pressure;Samples;Min_cycle;Max_cycle;Signal;HPM_P1;HPM_P2
2023/05/12 00:02:07;;;;;;;14.68;9.30;;;;;;;;;;5054226;28;20089;-80
2023/05/12 00:04:34;;;;;;;13.90;9.45;;;;;;;;;;5059301;28;20014;-79
2023/05/12 00:07:00;;;;;;;12.07;8.52;;;;;;;;;;5054068;28;20017;-80
2023/05/12 00:09:27;;;;;;;13.70;9.23;;;;;;;;;;5050783;28;20157;-80
2023/05/12 00:11:53;;;;;;;13.10;9.20;;;;;;;;;;5056262;28;20013;-82
2023/05/12 00:17:23;;;;;;;12.15;8.25;;;;;;;;;;5060706;28;20020;-80
2023/05/12 00:19:49;;;;;;;14.02;8.93;;;;;;;;;;5053968;28;20026;-79
2023/05/12 00:22:15;;;;;;;13.75;9.43;;;;;;;;;;5061040;28;20024;-80
2023/05/12 00:24:42;;;;;;;11.10;8.15;;;;;;;;;;5051766;28;20042;-82
2023/05/12 00:27:08;;;;;;;12.55;9.93;;;;;;;;;;5057326;28;20058;-82
2023/05/12 00:29:34;;;;;;;13.02;8.05;;;;;;;;;;5054608;28;20021;-80
2023/05/12 00:32:00;;;;;;;13.10;8.57;;;;;;;;;;5055150;28;20049;-82
2023/05/12 00:34:27;;;;;;;12.35;8.23;;;;;;;;;;5050503;28;20010;-80
2023/05/12 00:36:53;;;;;;;12.32;9.65;;;;;;;;;;5058719;28;20013;-82
2023/05/12 00:39:19;;;;;;;14.45;8.93;;;;;;;;;;5059720;28;20010;-83
2023/05/12 00:41:46;;;;;;;12.13;8.88;;;;;;;;;;5041400;28;20018;-81
2023/05/12 00:48:01;;;;;;;12.05;8.38;;;;;;;;;;5053413;28;20020;-81
2023/05/12 00:50:28;;;;;;;12.52;7.80;;;;;;;;;;5061199;28;20052;-81
2023/05/12 00:52:54;;;;;;;12.85;8.63;;;;;;;;;;5060335;28;20022;-80
2023/05/12 00:55:20;;;;;;;13.15;8.77;;;;;;;;;;5061257;28;20089;-81
2023/05/12 00:57:46;;;;;;;13.13;8.25;;;;;;;;;;5061052;28;20013;-80
2023/05/12 01:00:13;;;;;;;11.43;8.25;;;;;;;;;;5061143;28;20021;-79
2023/05/12 01:02:39;;;;;;;10.65;7.97;;;;;;;;;;5061253;28;20045;-82
2023/05/12 01:05:05;;;;;;;10.48;7.65;;;;;;;;;;5061115;28;20022;-82
2023/05/12 01:07:32;;;;;;;11.13;7.82;;;;;;;;;;5052736;28;20021;-82
2023/05/12 01:09:58;;;;;;;9.73;7.55;;;;;;;;;;5041148;28;20054;-81
2023/05/12 01:12:25;;;;;;;11.75;7.70;;;;;;;;;;5041226;28;20010;-82
2023/05/12 01:18:09;;;;;;;14.30;11.32;;;;;;;;;;5060734;28;20060;-82
2023/05/12 01:20:35;;;;;;;11.82;7.78;;;;;;;;;;5060378;28;20017;-82
2023/05/12 01:23:01;;;;;;;11.88;7.40;;;;;;;;;;5059316;28;20013;-80
2023/05/12 01:25:30;;;;;;;13.40;8.20;;;;;;;;;;5060200;28;20026;-83
2023/05/12 01:27:57;;;;;;;12.63;10.07;;;;;;;;;;5060209;28;20029;-80
2023/05/12 01:30:23;;;;;;;11.13;7.65;;;;;;;;;;5060695;28;20010;-83
2023/05/12 01:32:50;;;;;;;11.65;8.13;;;;;;;;;;5060533;28;20021;-80
2023/05/12 01:35:16;;;;;;;11.50;7.55;;;;;;;;;;5059494;28;20021;-79
2023/05/12 01:37:42;;;;;;;12.65;8.10;;;;;;;;;;5060592;28;20041;-82
2023/05/12 01:40:08;;;;;;;10.77;7.60;;;;;;;;;;5057854;28;20018;-78
2023/05/12 01:42:34;;;;;;;10.13;7.88;;;;;;;;;;5057772;28;20001;-80
2023/05/12 01:45:00;;;;;;;12.68;7.90;;;;;;;;;;5060122;28;20057;-83
2023/05/12 01:47:26;;;;;;;11.85;7.82;;;;;;;;;;5060307;28;20073;-82
2023/05/12 01:49:53;;;;;;;9.98;7.40;;;;;;;;;;5060208;28;20092;-82
2023/05/12 01:52:19;;;;;;;12.50;10.23;;;;;;;;;;5059643;28;20037;-77
2023/05/12 01:54:45;;;;;;;11.55;7.45;;;;;;;;;;5057972;28;20041;-79
2023/05/12 01:57:11;;;;;;;11.38;7.70;;;;;;;;;;5058049;28;20006;-77
2023/05/12 02:02:41;;;;;;;14.00;7.60;;;;;;;;;;5060149;28;20028;-81
2023/05/12 02:05:08;;;;;;;12.80;7.63;;;;;;;;;;5055775;28;20017;-79
2023/05/12 02:07:34;;;;;;;11.07;7.22;;;;;;;;;;5059645;28;20017;-80
2023/05/12 02:10:00;;;;;;;11.77;8.18;;;;;;;;;;5059516;28;20037;-80
2023/05/12 02:12:26;;;;;;;10.25;7.82;;;;;;;;;;5059712;28;20033;-80
2023/05/12 02:17:57;;;;;;;12.70;7.65;;;;;;;;;;5039682;28;20052;-79
2023/05/12 02:20:23;;;;;;;12.43;7.75;;;;;;;;;;5039598;28;20023;-80
2023/05/12 02:22:49;;;;;;;12.10;7.10;;;;;;;;;;5039770;28;20045;-79
2023/05/12 02:25:15;;;;;;;12.90;7.65;;;;;;;;;;5063276;28;20008;-79
2023/05/12 02:27:43;;;;;;;11.82;6.70;;;;;;;;;;5075386;28;20024;-79
2023/05/12 02:30:09;;;;;;;11.75;7.50;;;;;;;;;;5051664;28;20044;-82
2023/05/12 02:32:35;;;;;;;10.10;7.15;;;;;;;;;;5058961;28;20017;-80
2023/05/12 02:35:02;;;;;;;12.50;7.47;;;;;;;;;;5059242;28;20044;-80
2023/05/12 02:37:28;;;;;;;10.43;7.50;;;;;;;;;;5059114;28;20022;-80
2023/05/12 02:39:54;;;;;;;9.30;7.22;;;;;;;;;;5059388;28;20020;-82
2023/05/12 02:42:20;;;;;;;10.93;7.78;;;;;;;;;;5059297;28;20034;-81
2023/05/12 02:44:46;;;;;;;13.13;7.90;;;;;;;;;;5059332;28;20017;-83
2023/05/12 02:47:12;;;;;;;11.30;7.65;;;;;;;;;;5056256;28;20025;-79
2023/05/12 02:49:38;;;;;;;11.20;7.20;;;;;;;;;;5039340;28;20026;-82
2023/05/12 02:52:04;;;;;;;12.43;9.40;;;;;;;;;;5039478;28;20065;-83
2023/05/12 02:54:30;;;;;;;10.18;7.80;;;;;;;;;;5039476;28;20070;-81
2023/05/12 02:56:57;;;;;;;12.45;8.07;;;;;;;;;;5061368;28;20006;-81
2023/05/12 02:59:23;;;;;;;10.85;8.20;;;;;;;;;;5059101;28;20026;-80
2023/05/12 03:01:49;;;;;;;15.45;9.18;;;;;;;;;;5059254;28;20040;-81
2023/05/12 03:04:15;;;;;;;15.70;13.40;;;;;;;;;;5059122;28;20018;-82
2023/05/12 03:06:41;;;;;;;15.98;14.20;;;;;;;;;;5059112;28;20029;-81
2023/05/12 03:09:07;;;;;;;11.73;7.70;;;;;;;;;;5062138;28;20029;-80
2023/05/12 03:11:33;;;;;;;12.65;7.78;;;;;;;;;;5062724;28;20040;-79
2023/05/12 03:13:59;;;;;;;11.27;8.27;;;;;;;;;;5063154;28;20006;-82
2023/05/12 03:16:25;;;;;;;11.55;7.60;;;;;;;;;;5062506;28;20077;-76
2023/05/12 03:18:52;;;;;;;10.75;7.57;;;;;;;;;;5063078;28;20021;-81
2023/05/12 03:21:18;;;;;;;13.07;7.40;;;;;;;;;;5063053;28;20021;-81
2023/05/12 03:23:44;;;;;;;10.88;7.60;;;;;;;;;;5062746;28;20033;-80
2023/05/12 03:26:10;;;;;;;12.68;7.80;;;;;;;;;;5062570;28;20052;-80
2023/05/12 03:28:36;;;;;;;11.25;7.55;;;;;;;;;;5042640;28;20030;-80
2023/05/12 03:31:02;;;;;;;11.35;7.43;;;;;;;;;;5042750;28;20022;-81
2023/05/12 03:33:29;;;;;;;9.32;7.32;;;;;;;;;;5043003;28;20010;-78
2023/05/12 03:35:55;;;;;;;13.82;7.47;;;;;;;;;;5062091;28;20034;-81
2023/05/12 03:38:21;;;;;;;15.05;8.85;;;;;;;;;;5062253;28;20041;-81
2023/05/12 03:40:51;;;;;;;14.85;13.23;;;;;;;;;;5061785;28;20017;-77
2023/05/12 03:43:17;;;;;;;13.10;11.48;;;;;;;;;;5052025;28;20023;-78
2023/05/12 03:45:43;;;;;;;14.95;13.05;;;;;;;;;;5062121;28;20010;-82
2023/05/12 03:48:09;;;;;;;12.95;11.65;;;;;;;;;;5062348;28;20101;-81
2023/05/12 03:50:36;;;;;;;11.55;7.50;;;;;;;;;;5062561;28;20045;-83
2023/05/12 03:53:02;;;;;;;13.25;11.85;;;;;;;;;;5062052;28;20104;-82
2023/05/12 03:55:28;;;;;;;12.10;7.13;;;;;;;;;;5062294;28;20017;-82
2023/05/12 03:57:54;;;;;;;12.07;7.18;;;;;;;;;;5061847;28;20024;-81
2023/05/12 04:03:23;;;;;;;;;;;;;;;;;;5059568;28;20052;-80
2023/05/12 04:05:50;;;;;;;12.27;7.53;;;;;;;;;;5061948;28;19964;-80
2023/05/12 04:08:16;;;;;;;11.02;9.93;;;;;;;;;;5061940;28;20029;-82
2023/05/12 04:10:42;;;;;;;10.90;7.20;;;;;;;;;;5061552;28;20049;-78
2023/05/12 04:13:08;;;;;;;15.63;12.32;;;;;;;;;;5060856;28;20089;-78
2023/05/12 04:15:35;;;;;;;11.15;10.07;;;;;;;;;;5060082;28;20033;-82
2023/05/12 04:18:02;;;;;;;10.20;9.07;;;;;;;;;;5060718;28;20040;-81
2023/05/12 04:20:28;;;;;;;14.75;13.43;;;;;;;;;;5049963;28;20026;-77
2023/05/12 04:22:54;;;;;;;13.45;12.07;;;;;;;;;;5040825;28;20018;-80
2023/05/12 04:25:20;;;;;;;15.40;14.10;;;;;;;;;;5055333;28;20077;-80
2023/05/12 04:27:46;;;;;;;15.25;12.20;;;;;;;;;;5060499;28;20018;-78
2023/05/12 04:32:57;;;;;;;13.07;11.70;;;;;;;;;;5070612;28;20039;-82
2023/05/12 04:35:23;;;;;;;10.70;8.38;;;;;;;;;;5059901;28;20034;-80
2023/05/12 04:37:50;;;;;;;14.45;13.20;;;;;;;;;;5059003;28;20018;-81
2023/05/12 04:40:16;;;;;;;12.63;11.32;;;;;;;;;;5071231;28;20450;-82
2023/05/12 04:42:42;;;;;;;11.50;10.32;;;;;;;;;;5065629;28;20030;-80
2023/05/12 04:45:08;;;;;;;14.07;12.65;;;;;;;;;;5060669;28;20037;-79
2023/05/12 04:47:34;;;;;;;13.30;10.57;;;;;;;;;;5059975;28;20016;-80
2023/05/12 04:50:00;;;;;;;13.10;11.73;;;;;;;;;;5060561;28;20037;-78
2023/05/12 04:52:26;;;;;;;15.68;12.32;;;;;;;;;;5058045;28;20016;-78
2023/05/12 04:54:52;;;;;;;12.35;10.15;;;;;;;;;;5055627;28;20033;-78
2023/05/12 04:57:18;;;;;;;12.90;11.45;;;308.10;2304.00;;;;;;5045784;28;20033;-80
2023/05/12 04:59:44;;;;;;;14.45;12.02;;;307.80;2304.00;;;;;;5054018;28;20025;-79
2023/05/12 05:02:10;;;;;;;15.25;13.68;;;307.90;2304.00;;;;;;5049436;28;20014;-77
2023/05/12 05:04:37;;;;;;;15.90;12.50;;;308.00;2304.00;;;;;;5047610;28;20109;-77
2023/05/12 05:07:03;;;;;;;12.57;10.23;;;308.10;2304.00;;;;;;5041815;28;20021;-77
2023/05/12 05:09:29;;;;;;;17.88;16.15;;;308.10;2304.00;;;;;;5053771;28;20033;-77
2023/05/12 05:11:55;;;;;;;12.27;9.38;;;308.00;2304.00;;;;;;5054103;28;20021;-78
2023/05/12 05:14:21;;;;;;;11.23;10.05;;;308.00;2304.00;;;;;;5057941;28;20034;-78
2023/05/12 05:16:47;;;;;;;9.73;8.80;;;308.00;2304.00;;;;;;5052333;28;20018;-80
2023/05/12 05:19:14;;;;;;;12.18;9.23;;;307.60;2304.00;;;;;;5053252;28;20056;-77
2023/05/12 05:21:40;;;;;;;12.60;10.82;;;308.10;2304.00;;;;;;5045252;28;20034;-81
2023/05/12 05:24:06;;;;;;;13.20;11.82;;;308.00;2304.00;;;;;;5046722;28;20033;-78
2023/05/12 05:26:32;;;;;;;16.23;12.50;;;308.10;2304.00;;;;;;5048513;28;20026;-79
2023/05/12 05:28:58;;;;;;;11.73;10.52;;;308.10;2124.80;;;;;;5044836;28;20041;-79
2023/05/12 05:31:24;;;;;;;11.98;10.77;;;332.80;2329.60;;;;;;5051551;28;20015;-78
2023/05/12 05:33:50;;;;;;;15.32;13.75;;;332.90;2329.60;;;;;;5050325;28;20064;-78
2023/05/12 05:36:16;;;;;;;10.75;9.38;;;333.00;2329.60;;;;;;5068382;28;20025;-79
2023/05/12 05:38:42;;;;;;;11.30;9.88;;;333.10;2329.60;;;;;;5049394;28;20029;-79
2023/05/12 05:41:08;;;;;;;18.48;16.63;;;;;;;;;;5053517;28;20026;-81
2023/05/12 05:43:34;;;;;;;12.45;9.82;;;;;;;;;;5066090;28;20112;-80
2023/05/12 05:46:19;;;;;;;11.77;8.65;;;;;;;;;;5076408;28;20021;-80
2023/05/12 05:48:45;;;;;;;14.50;12.85;;;;;;;;;;5062085;28;20033;-79
2023/05/12 05:51:11;;;;;;;15.73;14.13;;;;;;;;;;5060741;28;20040;-82
2023/05/12 05:53:37;;;;;;;15.70;10.80;;;;;;;;;;5055214;28;20040;-81
2023/05/12 05:56:03;;;;;;;19.33;17.27;;;;;;;;;;5069381;28;20029;-78
2023/05/12 05:58:30;;;;;;;17.33;14.65;;;;;;;;;;5082369;28;20052;-79
2023/05/12 06:00:56;;;;;;;19.83;17.70;;;;;;;;;;5075057;28;20021;-81
2023/05/12 06:03:22;;;;;;;25.95;22.08;;;;;;;;;;5070027;28;20032;-79
2023/05/12 06:05:49;;;;;;;31.98;28.65;;;;;;;;;;5073825;28;20021;-78
2023/05/12 06:08:15;;;;;;;20.45;18.30;;;;;;;;;;5071270;28;20017;-81
2023/05/12 06:10:41;;;;;;;19.35;16.88;;;;;;;;;;5072508;28;20520;-79
2023/05/12 06:13:07;;;;;;;25.40;18.92;;;;;;;;;;5066361;28;20016;-80
2023/05/12 06:15:33;;;;;;;28.50;18.23;;;;;;;;;;5063411;28;20041;-79
2023/05/12 06:17:59;;;;;;;14.98;10.80;;;;;;;;;;5070483;28;20009;-78
2023/05/12 06:20:26;;;;;;;15.13;10.68;;;;;;;;;;5061410;28;20017;-78
2023/05/12 06:22:52;;;;;;;13.88;12.35;;;;;;;;;;5060091;28;20006;-78
2023/05/12 06:25:18;;;;;;;21.13;18.95;;;;;;;;;;5057332;28;20014;-79
2023/05/12 06:27:44;;;;;;;18.45;16.50;;;;;;;;;;5047133;28;20032;-78
2023/05/12 06:30:10;;;;;;;20.50;17.45;;;;;;;;;;5051161;28;20029;-78
2023/05/12 06:32:55;;;;;;;21.25;19.00;;;;;;;;;;5062317;28;20028;-79
2023/05/12 06:35:21;;;;;;;15.25;12.18;;;;;;;;;;5072419;28;20021;-79
2023/05/12 06:37:50;;;;;;;16.90;12.77;;;;;;;;;;5070812;28;20075;-80
2023/05/12 06:40:17;;;;;;;26.02;23.40;;;;;;;;;;5056237;28;20093;-82
2023/05/12 06:42:43;;;;;;;13.93;10.50;;;;;;;;;;5046908;28;20077;-80
2023/05/12 06:45:11;;;;;;;17.33;12.85;;;;;;;;;;5067145;28;20016;-80
2023/05/12 06:47:37;;;;;;;18.65;15.90;;;;;;;;;;5065197;28;20022;-80
2023/05/12 06:50:03;;;;;;;13.23;10.65;;;;;;;;;;5047699;28;20013;-81
2023/05/12 06:52:30;;;;;;;16.20;11.63;;;;;;;;;;5045245;28;20029;-83
2023/05/12 06:54:56;;;;;;;14.88;9.70;;;;;;;;;;5053680;28;20013;-81
2023/05/12 06:57:22;;;;;;;15.15;9.95;;;;;;;;;;5053435;28;20029;-78
2023/05/12 06:59:48;;;;;;;16.77;9.90;;;;;;;;;;5056409;28;20021;-80
2023/05/12 07:02:15;;;;;;;15.82;11.10;;;;;;;;;;5064989;28;20025;-82
2023/05/12 07:04:41;;;;;;;16.08;12.05;;;;;;;;;;5047231;28;20013;-78
2023/05/12 07:07:08;;;;;;;16.65;12.05;;;;;;;;;;5054353;28;20041;-80
2023/05/12 07:09:34;;;;;;;14.93;10.77;;;;;;;;;;5069008;28;20048;-78
2023/05/12 07:12:00;;;;;;;16.65;12.13;;;;;;;;;;5050747;28;20041;-79
2023/05/12 07:14:26;;;;;;;18.10;11.35;;;;;;;;;;5049537;28;20022;-81
2023/05/12 07:17:07;;;;;;;16.42;12.82;;;;;;;;;;5049732;28;20052;-80
2023/05/12 07:19:34;;;;;;;14.20;9.70;;;;;;;;;;5045126;28;20053;-79
2023/05/12 07:22:00;;;;;;;14.05;9.20;;;358.60;2329.60;;;;;;5049685;28;20022;-79
2023/05/12 07:24:26;;;;;;;12.68;9.40;;;358.70;2329.60;;;;;;5053970;28;20005;-79
2023/05/12 07:26:52;;;;;;;15.73;11.10;;;358.60;2329.60;;;;;;5048057;28;20021;-80
2023/05/12 07:29:18;;;;;;;14.20;11.88;;;358.80;2329.60;;;;;;5045278;28;20040;-79
2023/05/12 07:31:43;;;;;;;14.50;12.18;;;358.80;2329.60;;;;;;5044160;28;20025;-82
2023/05/12 07:34:10;;;;;;;13.65;10.45;;;;;;;;;;5051927;28;20006;-78
2023/05/12 07:36:36;;;;;;;13.27;9.75;;;;;;;;;;5047630;28;20028;-79
2023/05/12 07:39:02;;;;;;;11.93;9.10;;;;;;;;;;5050648;28;20042;-81
2023/05/12 07:41:28;;;;;;;14.77;12.98;;;;;;;;;;5051452;28;20030;-82
2023/05/12 07:43:54;;;;;;;12.52;10.65;;;;;;;;;;5045352;28;20025;-82
2023/05/12 07:46:20;;;;;;;11.40;9.13;;;;;;;;;;5057487;28;20009;-80
2023/05/12 07:48:46;;;;;;;11.27;7.90;;;;;;;;;;5061705;28;20033;-79
2023/05/12 07:51:13;;;;;;;12.77;8.85;;;;;;;;;;5064240;28;20052;-81
2023/05/12 07:53:40;;;;;;;19.65;17.73;;;;;;;;;;5064140;28;20033;-80
2023/05/12 07:56:07;;;;;;;14.73;12.23;;;;;;;;;;5061863;28;20022;-79
2023/05/12 07:58:33;;;;;;;11.77;8.63;;;;;;;;;;5050337;28;20013;-79
2023/05/12 08:01:00;;;;;;;21.70;19.55;;;;;;;;;;5071924;28;20022;-80
2023/05/12 08:03:27;;;;;;;15.38;13.88;;;;;;;;;;5051862;28;20084;-80
2023/05/12 08:05:53;;;;;;;11.60;8.80;;;;;;;;;;5063342;28;20021;-82
2023/05/12 08:08:19;;;;;;;23.25;21.15;;;;;;;;;;5056001;28;20045;-79
2023/05/12 08:10:45;;;;;;;21.60;19.38;;;;;;;;;;5048965;28;20045;-78
2023/05/12 08:13:11;;;;;;;14.40;11.35;;;;;;;;;;5056382;28;20064;-79
2023/05/12 08:15:37;;;;;;;14.02;9.40;;;;;;;;;;5071787;28;20017;-80
2023/05/12 08:18:04;;;;;;;11.85;10.52;;;;;;;;;;5077149;28;20013;-80
2023/05/12 08:20:31;;;;;;;16.85;15.10;;;;;;;;;;5076880;28;20307;-79
2023/05/12 08:22:57;;;;;;;17.55;14.65;;;;;;;;;;5077670;28;20081;-78
2023/05/12 08:25:23;;;;;;;28.38;21.30;;;;;;;;;;5072017;28;20063;-80
2023/05/12 08:27:49;;;;;;;27.17;18.02;;;;;;;;;;5076773;28;20047;-80
2023/05/12 08:30:16;;;;;;;16.70;14.32;;;;;;;;;;5076341;28;20096;-80
2023/05/12 08:33:25;;;;;;;21.75;19.67;;;409.90;2355.20;;;;;;5078232;28;20025;-82
2023/05/12 08:35:52;;;;;;;20.98;16.65;;;409.60;2355.20;;;;;;5077414;28;20085;-81
2023/05/12 08:38:18;;;;;;;13.02;8.98;;;410.00;2355.20;;;;;;5060772;28;20004;-83
2023/05/12 08:41:05;;;;;;;16.10;14.40;;;409.60;2355.20;;;;;;5060267;28;20027;-81
2023/05/12 08:43:43;;;;;;;27.10;24.27;;;384.80;2329.60;;;;;;5076182;28;20033;-80
2023/05/12 08:46:09;;;;;;;31.95;25.88;;;;;;;;;;5075015;28;20009;-80
2023/05/12 08:48:37;;;;;;;32.70;23.88;;;;;;;;;;5072598;28;20047;-78
2023/05/12 08:51:09;;;;;;;17.88;15.68;;;409.60;2355.20;;;;;;5063841;28;20311;-80
2023/05/12 08:53:36;;;;;;;17.98;12.93;;;384.80;2329.60;;;;;;5078003;28;20028;-80
2023/05/12 08:56:04;;;;;;;29.25;26.15;;;384.60;2329.60;;;;;;5072864;28;20028;-80
2023/05/12 08:58:30;;;;;;;24.90;22.45;;;384.40;2329.60;;;;;;5077019;28;20009;-80
2023/05/12 09:01:00;;;;;;;11.07;9.88;;;;;;;;;;5076726;28;20092;-79
2023/05/12 09:03:29;;;;;;;19.73;16.85;;;;;;;;;;5055393;28;20041;-79
2023/05/12 09:05:57;;;;;;;12.00;9.18;;;;;;;;;;5075229;28;20119;-81
2023/05/12 09:08:28;;;;;;;15.25;12.45;;;384.90;2329.60;;;;;;5076676;28;20017;-81
2023/05/12 09:10:55;;;;;;;13.55;10.63;;;384.60;2329.60;;;;;;5076379;28;20033;-82
2023/05/12 09:13:39;;;;;;;13.05;10.27;;;384.50;2329.60;;;;;;5075262;28;20040;-80
2023/05/12 09:16:09;;;;;;;12.68;10.98;;;384.40;2329.60;;;;;;5075644;28;20024;-80
2023/05/12 09:18:50;;;;;;;14.82;12.93;;;;;;;;;;5076601;28;20017;-80
2023/05/12 09:21:16;;;;;;;13.95;8.93;;;;;;;;;;5076293;28;20048;-79
2023/05/12 09:24:12;;;;;;;16.33;12.43;;;;;;;;;;5073949;28;20025;-80
2023/05/12 09:26:51;;;;;;;16.65;14.93;;;;;;;;;;5033305;28;20041;-79
2023/05/12 09:29:18;;;;;;;15.70;12.05;;;384.40;2329.60;;;;;;5027537;28;20061;-79
2023/05/12 09:31:51;;;;;;;16.45;14.60;;;384.10;2329.60;;;;;;5031521;28;20101;-79
2023/05/12 09:34:17;;;;;;;18.83;16.60;;;384.20;2329.60;;;;;;5034737;28;20045;-79
2023/05/12 09:36:47;;;;;;;22.45;20.15;;;384.10;2329.60;;;;;;5034552;28;20054;-79
2023/05/12 09:39:12;;;;;;;16.98;15.18;;;384.10;2329.60;;;;;;5028270;28;20042;-78
2023/05/12 09:41:40;;;;;;;22.15;19.85;;;384.20;2329.60;;;;;;5031029;28;20042;-81
2023/05/12 09:44:07;;;;;;;14.20;10.45;;;384.00;2227.20;;;;;;5034897;28;20103;-79
2023/05/12 09:46:33;;;;;;;17.50;15.43;;;384.10;2176.00;;;;;;5032331;28;20010;-80
2023/05/12 09:49:01;;;;;;;28.40;25.42;;;384.00;2329.60;;;;;;5025171;28;20105;-80
2023/05/12 09:51:28;;;;;;;33.72;30.25;;;384.00;2329.60;;;;;;5033363;28;20038;-80
2023/05/12 09:53:54;;;;;;;26.08;23.70;;;359.30;2150.40;;;;;;5031082;28;20048;-79
2023/05/12 09:56:21;;;;;;;12.65;10.18;;;359.20;2329.60;;;;;;5030382;28;20025;-79
2023/05/12 09:58:48;;;;;;;14.82;13.00;;;359.30;2329.60;;;;;;5021651;28;20029;-80
2023/05/12 10:01:18;;;;;;;15.38;13.73;;;359.20;2329.60;;;;;;5032475;28;20033;-79
2023/05/12 10:03:47;;;;;;;24.10;21.63;;;359.30;2329.60;;;;;;5067884;28;20017;-79
2023/05/12 10:06:29;;;;;;;12.27;10.07;;;359.30;2329.60;;;;;;5072909;28;20012;-79
2023/05/12 10:09:09;;;;;;;15.70;13.60;;;384.00;2329.60;;;;;;5074471;28;20036;-79
2023/05/12 10:11:36;;;;;;;14.30;9.82;;;384.10;2329.60;;;;;;5076034;28;20037;-78
2023/05/12 10:14:02;;;;;;;12.60;10.73;;;384.30;2329.60;;;;;;5073446;28;20070;-81
2023/05/12 10:16:28;;;;;;;13.95;11.38;;;384.40;2329.60;;;;;;5076194;28;20021;-81
2023/05/12 10:18:55;;;;;;;12.90;10.50;;;384.50;2329.60;;;;;;5071489;28;20029;-79
2023/05/12 10:21:23;;;;;;;15.80;13.00;;;384.60;2150.40;;;;;;5072933;28;20044;-79
2023/05/12 10:23:49;;;;;;;16.27;13.70;;;384.60;2329.60;;;;;;5073995;28;20038;-81
2023/05/12 10:26:16;;;;;;;16.23;13.90;;;384.50;2329.60;;;;;;5074226;28;20051;-78
2023/05/12 10:28:43;;;;;;;17.05;15.25;;;384.70;2329.60;;;;;;5075636;28;20049;-81
2023/05/12 10:31:10;;;;;;;16.67;14.98;;;384.70;2329.60;;;;;;5075905;28;20005;-79
2023/05/12 10:33:36;;;;;;;16.08;14.38;;;384.50;2329.60;;;;;;5064938;28;20033;-78
2023/05/12 10:36:02;;;;;;;11.80;10.60;;;384.40;2329.60;;;;;;5070571;28;20017;-79
2023/05/12 10:38:36;;;;;;;11.77;10.57;;;384.30;2329.60;;;;;;5072649;28;20029;-79
2023/05/12 10:41:04;;;;;;;12.63;11.32;;;384.30;2329.60;;;;;;5071199;28;20021;-81
2023/05/12 10:43:42;;;;;;;14.65;11.20;;;384.40;2329.60;;;;;;5076333;28;20035;-79
2023/05/12 10:46:11;;;;;;;14.13;12.20;;;384.30;2329.60;;;;;;5076675;28;20036;-80
2023/05/12 10:48:54;;;;;;;13.43;10.75;;;384.30;2329.60;;;;;;5072761;28;20048;-79
2023/05/12 10:51:31;;;;;;;12.27;11.00;;;384.40;2329.60;;;;;;5075178;28;20005;-82
2023/05/12 10:54:02;;;;;;;21.40;16.65;;;384.30;2329.60;;;;;;5078897;28;20029;-80
2023/05/12 10:56:35;;;;;;;16.10;14.40;;;384.10;2329.60;;;;;;5074101;28;20017;-77
2023/05/12 10:59:21;;;;;;;12.82;11.23;;;384.20;2329.60;;;;;;5072548;28;20086;-78
2023/05/12 11:02:04;;;;;;;11.27;9.85;;;384.30;2329.60;;;;;;5073460;28;20017;-80
2023/05/12 11:04:40;;;;;;;12.32;11.13;;;384.60;2329.60;;;;;;5076220;28;20035;-80
2023/05/12 11:07:08;;;;;;;11.57;10.38;;;;;;;;;;5069163;28;20024;-80
2023/05/12 11:09:38;;;;;;;11.27;10.18;;;;;;;;;;5074488;28;20060;-80
2023/05/12 11:12:06;;;;;;;11.23;9.90;;;;;;;;;;5083049;28;20032;-82
2023/05/12 11:14:32;;;;;;;10.50;8.50;;;;;;;;;;5073701;28;20028;-80
2023/05/12 11:16:59;;;;;;;11.13;8.82;;;;;;;;;;5077461;28;20005;-80
2023/05/12 11:19:25;;;;;;;10.82;8.82;;;;;;;;;;5049759;28;20271;-77
2023/05/12 11:21:51;;;;;;;12.45;10.20;;;;;;;;;;5051461;28;20014;-77
2023/05/12 11:24:17;;;;;;;11.23;9.05;;;;;;;;;;5037666;28;20038;-81
2023/05/12 11:26:43;;;;;;;9.80;8.75;;;;;;;;;;5054025;28;20013;-77
2023/05/12 11:29:10;;;;;;;10.73;9.63;;;;;;;;;;5058272;28;20025;-76
2023/05/12 11:31:37;;;;;;;12.20;9.77;;;409.60;2355.20;;;;;;5061754;28;20085;-78
2023/05/12 11:37:26;;;;;;;11.03;9.93;;;409.60;2355.20;;;;;;5069719;28;20089;-78
2023/05/12 11:39:51;;;;;;;9.73;8.73;;;409.60;2355.20;;;;;;5080415;28;20025;-80
2023/05/12 11:42:18;;;;;;;11.50;8.55;;;;;;;;;;5079756;28;20020;-79
2023/05/12 11:44:48;;;;;;;12.73;11.10;;;;;;;;;;5079056;28;20067;-80
2023/05/12 11:47:15;;;;;;;8.75;6.88;;;;;;;;;;5067186;28;20030;-80
2023/05/12 11:49:49;;;;;;;10.75;8.02;;;410.40;2355.20;;;;;;5056972;28;20053;-79
2023/05/12 11:52:16;;;;;;;10.10;7.60;;;;;;;;;;5077697;28;20017;-78
2023/05/12 11:54:56;;;;;;;11.68;7.53;;;;;;;;;;5063182;28;20285;-80
2023/05/12 11:57:26;;;;;;;12.90;9.95;;;;;;;;;;5074247;28;20096;-80
2023/05/12 11:59:56;;;;;;;9.02;6.07;;;;;;;;;;5080531;28;20227;-79
2023/05/12 12:02:22;;;;;;;10.10;6.68;;;;;;;;;;5071987;28;20021;-81
2023/05/12 12:04:48;;;;;;;10.00;8.48;;;;;;;;;;5079130;28;20017;-78
2023/05/12 12:07:14;;;;;;;11.75;7.38;;;;;;;;;;5059288;28;20037;-81
2023/05/12 12:09:41;;;;;;;9.68;7.70;;;;;;;;;;5069706;28;20044;-80
2023/05/12 12:12:10;;;;;;;11.25;7.90;;;;;;;;;;5080377;28;20025;-82
2023/05/12 12:14:37;;;;;;;9.77;7.57;;;;;;;;;;5079734;28;20016;-77
2023/05/12 12:17:03;;;;;;;9.80;7.38;;;;;;;;;;5079192;28;20036;-80
2023/05/12 12:19:30;;;;;;;10.10;7.18;;;;;;;;;;5078805;28;20021;-78
2023/05/12 12:21:57;;;;;;;10.00;7.50;;;;;;;;;;5079623;28;20018;-78
2023/05/12 12:24:23;;;;;;;8.02;7.10;;;;;;;;;;5074650;28;20092;-79
2023/05/12 12:26:50;;;;;;;9.80;6.80;;;;;;;;;;5073444;28;20028;-79
2023/05/12 12:29:16;;;;;;;10.50;6.68;;;;;;;;;;5075827;28;20022;-77
2023/05/12 12:31:42;;;;;;;8.63;6.35;;;;;;;;;;5063506;28;20030;-77
2023/05/12 12:34:08;;;;;;;9.48;6.20;;;461.60;2380.80;;;;;;5060209;28;20037;-78
2023/05/12 12:36:36;;;;;;;8.70;6.13;;;461.40;2380.80;;;;;;5060567;28;20014;-78
2023/05/12 12:39:03;;;;;;;9.68;7.30;;;461.30;2380.80;;;;;;5058676;28;20013;-77
2023/05/12 12:41:28;;;;;;;8.27;6.50;;;461.00;2380.80;;;;;;5057915;28;20014;-76
2023/05/12 12:43:55;;;;;;;8.02;6.63;;;;;;;;;;5060851;28;20021;-78
2023/05/12 12:46:21;;;;;;;8.32;6.65;;;461.70;2380.80;;;;;;5060257;28;20024;-78
2023/05/12 12:48:46;;;;;;;8.77;6.40;;;486.40;2380.80;;;;;;5064611;28;20275;-79
2023/05/12 12:51:32;;;;;;;9.57;6.63;;;;;;;;;;5070651;28;20075;-80
2023/05/12 12:53:58;;;;;;;8.18;6.95;;;;;;;;;;5077485;28;20016;-79
2023/05/12 12:56:24;;;;;;;8.90;7.30;;;486.90;2380.80;;;;;;5056340;28;20025;-81
2023/05/12 12:58:51;;;;;;;9.48;7.50;;;461.70;2380.80;;;;;;5062309;28;20032;-81
2023/05/12 13:01:18;;;;;;;9.50;7.50;;;486.60;2380.80;;;;;;5077312;28;20040;-80
2023/05/12 13:03:44;;;;;;;10.63;8.10;;;486.70;2380.80;;;;;;5078458;28;20047;-82
2023/05/12 13:06:12;;;;;;;9.73;8.52;;;486.40;2380.80;;;;;;5072170;28;20029;-81
2023/05/12 13:08:39;;;;;;;8.88;7.72;;;486.60;2380.80;;;;;;5077680;28;20043;-83
2023/05/12 13:11:06;;;;;;;11.60;8.57;;;;;;;;;;5066728;28;20101;-83
2023/05/12 13:13:35;;;;;;;11.02;9.27;;;;;;;;;;5071910;28;20059;-80
2023/05/12 13:16:01;;;;;;;11.25;9.40;;;;;;;;;;5065724;28;20091;-83
2023/05/12 13:18:27;;;;;;;12.30;10.43;;;;;;;;;;5074599;28;20036;-82
2023/05/12 13:20:54;;;;;;;12.32;9.68;;;486.40;2380.80;;;;;;5075930;28;20025;-81
2023/05/12 13:23:20;;;;;;;12.18;10.45;;;461.70;2380.80;;;;;;5077858;28;20044;-82
2023/05/12 13:25:47;;;;;;;12.38;9.77;;;461.50;2380.80;;;;;;5065130;28;20010;-82
2023/05/12 13:28:13;;;;;;;17.20;13.02;;;461.70;2380.80;;;;;;5047526;28;20072;-78
2023/05/12 13:30:41;;;;;;;16.40;12.27;;;;;;;;;;5065146;28;20089;-78
2023/05/12 13:33:06;;;;;;;13.90;10.70;;;461.00;2380.80;;;;;;5059678;28;20033;-79
2023/05/12 13:35:32;;;;;;;13.52;10.68;;;461.00;2380.80;;;;;;5067053;28;20016;-79
2023/05/12 13:37:58;;;;;;;10.45;9.27;;;460.90;2380.80;;;;;;5063632;28;20062;-79
2023/05/12 13:40:24;;;;;;;10.70;9.07;;;460.90;2380.80;;;;;;5068041;28;20085;-79
2023/05/12 13:42:50;;;;;;;11.45;9.05;;;460.90;2380.80;;;;;;5068546;28;20017;-79
2023/05/12 13:45:20;;;;;;;10.80;8.77;;;461.00;2380.80;;;;;;5073972;28;20017;-77
2023/05/12 13:47:46;;;;;;;11.68;8.40;;;461.00;2380.80;;;;;;5070402;28;20021;-78
2023/05/12 13:50:12;;;;;;;9.57;7.32;;;460.90;2380.80;;;;;;5072564;28;20040;-78
2023/05/12 13:52:37;;;;;;;8.73;6.20;;;460.90;2380.80;;;;;;5069998;28;20061;-80
2023/05/12 13:55:04;;;;;;;8.38;7.30;;;460.90;2380.80;;;;;;5069966;28;20044;-77
2023/05/12 13:57:30;;;;;;;8.93;7.70;;;436.10;2355.20;;;;;;5062530;28;20080;-77
2023/05/12 13:59:57;;;;;;;9.85;6.95;;;436.10;2355.20;;;;;;5071450;28;20032;-78
2023/05/12 14:02:24;;;;;;;13.25;8.70;;;460.80;2380.80;;;;;;5061106;28;20056;-80